createdAt,value
2019-01-14T00:00:00.603Z,103.17
2019-01-14T00:02:29.523Z,114.60
2019-01-14T00:04:57.915Z,99.27
2019-01-14T00:07:26.720Z,90.13
2019-01-14T00:09:55.221Z,95.73
2019-01-14T00:12:23.875Z,92.70
2019-01-14T00:14:52.577Z,96.90
2019-01-14T00:17:21.176Z,92.73
2019-01-14T00:19:49.988Z,91.77
2019-01-14T00:22:18.374Z,89.83
2019-01-14T00:24:47.199Z,94.53
2019-01-14T00:27:15.658Z,93.03
2019-01-14T00:29:44.313Z,91.70
2019-01-14T00:32:12.949Z,88.53
2019-01-14T00:34:41.520Z,85.40
2019-01-14T00:37:10.375Z,84.87
2019-01-14T00:39:38.827Z,80.63
2019-01-14T00:42:07.007Z,81.63
2019-01-14T00:44:35.637Z,79.47
2019-01-14T00:47:04.018Z,83.77
2019-01-14T00:49:32.488Z,85.07
2019-01-14T00:52:01.142Z,89.30
2019-01-14T00:54:30.781Z,89.67
2019-01-14T00:56:59.210Z,89.00
2019-01-14T00:59:27.498Z,92.73
2019-01-14T01:01:56.226Z,89.70
2019-01-14T01:04:24.969Z,93.07
2019-01-14T01:06:53.876Z,88.70
2019-01-14T01:09:22.263Z,97.00
2019-01-14T01:11:51.024Z,96.07
2019-01-14T01:14:19.347Z,96.97
2019-01-14T01:16:48.121Z,97.20
2019-01-14T01:19:16.778Z,99.80
2019-01-14T01:21:45.472Z,95.17
2019-01-14T01:24:14.056Z,105.23
2019-01-14T01:26:42.778Z,106.60
2019-01-14T01:29:11.444Z,108.57
2019-01-14T01:31:39.755Z,107.60
2019-01-14T01:34:08.055Z,99.50
2019-01-14T01:36:36.322Z,89.30
2019-01-14T01:39:07.367Z,88.47
2019-01-14T01:41:36.153Z,84.87
2019-01-14T01:44:04.699Z,88.57
2019-01-14T01:46:33.130Z,85.07
2019-01-14T01:49:01.856Z,83.03
2019-01-14T01:51:30.336Z,83.00
2019-01-14T01:53:59.139Z,82.90
2019-01-14T01:56:27.602Z,77.80
2019-01-14T01:58:56.422Z,77.30
2019-01-14T02:01:25.300Z,74.60
2019-01-14T02:03:53.932Z,73.30
2019-01-14T02:06:22.769Z,74.50
2019-01-14T02:08:51.564Z,74.67
2019-01-14T02:11:20.401Z,72.87
2019-01-14T02:13:50.440Z,78.73
2019-01-14T02:16:18.790Z,76.30
2019-01-14T02:18:48.351Z,77.20
2019-01-14T02:21:16.981Z,73.33
2019-01-14T02:23:45.674Z,76.80
2019-01-14T02:26:14.339Z,70.90
2019-01-14T02:28:42.885Z,73.80
2019-01-14T02:31:11.505Z,77.70
2019-01-14T02:33:39.783Z,74.10
2019-01-14T02:36:08.129Z,70.53
2019-01-14T02:38:38.007Z,72.53
2019-01-14T02:41:06.634Z,69.13
2019-01-14T02:43:35.409Z,67.53
2019-01-14T02:46:04.043Z,67.10
2019-01-14T02:48:32.845Z,68.63
2019-01-14T02:51:01.438Z,67.40
2019-01-14T02:53:30.411Z,66.30
2019-01-14T02:55:58.702Z,71.03
2019-01-14T02:58:27.187Z,70.80
2019-01-14T03:00:55.992Z,69.43
2019-01-14T03:03:24.518Z,63.17
2019-01-14T03:05:52.949Z,67.90
2019-01-14T03:08:21.519Z,64.47
2019-01-14T03:10:50.200Z,60.73
2019-01-14T03:13:18.746Z,58.13
2019-01-14T03:15:47.313Z,67.17
2019-01-14T03:18:15.715Z,62.63
2019-01-14T03:20:43.992Z,59.20
2019-01-14T03:23:12.792Z,57.83
2019-01-14T03:25:41.634Z,53.60
2019-01-14T03:28:10.350Z,56.70
2019-01-14T03:30:39.021Z,50.57
2019-01-14T03:33:07.508Z,49.80
2019-01-14T03:35:35.718Z,57.10
2019-01-14T03:38:04.155Z,50.93
2019-01-14T03:40:32.486Z,58.27
2019-01-14T03:43:00.810Z,56.47
2019-01-14T03:45:29.483Z,55.00
2019-01-14T03:47:57.847Z,54.13
2019-01-14T03:50:26.275Z,54.20
2019-01-14T03:52:54.965Z,49.77
2019-01-14T03:55:23.505Z,50.40
2019-01-14T03:57:52.987Z,51.93
2019-01-14T04:00:21.636Z,45.80
2019-01-14T04:02:50.232Z,49.10
2019-01-14T04:05:20.104Z,52.50
2019-01-14T04:07:48.394Z,49.93
2019-01-14T04:10:16.843Z,50.43
2019-01-14T04:12:45.575Z,51.53
2019-01-14T04:15:16.389Z,49.37
2019-01-14T04:17:45.164Z,50.97
2019-01-14T04:20:15.312Z,48.63
2019-01-14T04:22:44.039Z,52.50
2019-01-14T04:25:12.759Z,47.70
2019-01-14T04:27:41.577Z,49.23
2019-01-14T04:30:16.342Z,52.73
2019-01-14T04:32:44.859Z,49.20
2019-01-14T04:35:13.213Z,52.07
2019-01-14T04:37:42.860Z,51.53
2019-01-14T04:40:11.723Z,50.03
2019-01-14T04:42:40.460Z,51.80
2019-01-14T04:45:09.234Z,49.60
2019-01-14T04:47:37.595Z,49.20
2019-01-14T04:50:08.812Z,51.13
2019-01-14T04:52:37.336Z,75.43
2019-01-14T04:55:06.280Z,57.37
2019-01-14T04:57:34.599Z,54.43
2019-01-14T05:00:03.797Z,52.70
2019-01-14T05:02:32.648Z,51.93
2019-01-14T05:05:01.248Z,54.53
2019-01-14T05:07:31.719Z,53.57
2019-01-14T05:10:00.611Z,50.20
2019-01-14T05:12:29.432Z,51.30
2019-01-14T05:14:58.070Z,50.93
2019-01-14T05:17:26.612Z,54.57
2019-01-14T05:19:55.278Z,52.00
2019-01-14T05:22:23.914Z,52.23
2019-01-14T05:24:52.406Z,51.80
2019-01-14T05:27:21.075Z,53.27
2019-01-14T05:29:49.598Z,52.37
2019-01-14T05:32:18.050Z,47.53
2019-01-14T05:34:46.707Z,50.47
2019-01-14T05:37:15.466Z,49.40
2019-01-14T05:39:44.081Z,49.53
2019-01-14T05:42:12.621Z,52.87
2019-01-14T05:44:41.396Z,55.37
2019-01-14T05:47:10.037Z,50.70
2019-01-14T05:49:38.467Z,46.77
2019-01-14T05:52:07.176Z,48.53
2019-01-14T05:54:36.017Z,49.27
2019-01-14T05:57:04.767Z,50.60
2019-01-14T05:59:33.071Z,52.87
2019-01-14T06:02:01.732Z,49.10
2019-01-14T06:04:30.334Z,49.57
2019-01-14T06:06:59.048Z,55.80
2019-01-14T06:09:27.937Z,52.17
2019-01-14T06:11:56.194Z,51.83
2019-01-14T06:14:24.937Z,48.57
2019-01-14T06:16:53.511Z,46.40
2019-01-14T06:19:22.133Z,46.17
2019-01-14T06:21:50.820Z,48.80
2019-01-14T06:24:19.481Z,47.20
2019-01-14T06:26:48.275Z,47.93
2019-01-14T06:29:16.610Z,45.67
2019-01-14T06:31:45.351Z,44.17
2019-01-14T06:34:13.932Z,49.40
2019-01-14T06:36:42.553Z,50.07
2019-01-14T06:39:11.328Z,47.27
2019-01-14T06:41:40.023Z,47.37
2019-01-14T06:44:08.402Z,52.43
2019-01-14T06:46:37.264Z,49.90
2019-01-14T06:49:05.551Z,49.73
2019-01-14T06:51:34.284Z,47.97
2019-01-14T06:54:02.859Z,46.30
2019-01-14T06:56:31.352Z,46.07
2019-01-14T06:59:00.048Z,43.33
2019-01-14T07:01:28.415Z,44.43
2019-01-14T07:03:57.097Z,42.97
2019-01-14T07:06:25.763Z,46.70
2019-01-14T07:08:54.473Z,47.60
2019-01-14T07:11:23.768Z,52.93
2019-01-14T07:13:52.590Z,49.90
2019-01-14T07:16:21.330Z,53.37
2019-01-14T07:18:49.679Z,59.60
2019-01-14T07:21:17.955Z,59.37
2019-01-14T07:23:46.675Z,58.47
2019-01-14T07:26:15.274Z,60.67
2019-01-14T07:28:44.016Z,59.80
2019-01-14T07:31:12.532Z,55.80
2019-01-14T07:33:40.887Z,55.33
2019-01-14T07:36:09.513Z,59.27
2019-01-14T07:38:38.179Z,58.50
2019-01-14T07:41:06.531Z,56.00
2019-01-14T07:43:35.115Z,54.40
2019-01-14T07:46:03.522Z,58.27
2019-01-14T07:48:32.108Z,53.97
2019-01-14T07:51:00.802Z,57.80
2019-01-14T07:53:29.377Z,54.70
2019-01-14T07:55:57.850Z,55.83
2019-01-14T07:58:26.656Z,53.93
2019-01-14T08:00:55.515Z,57.20
2019-01-14T08:03:24.072Z,57.70
2019-01-14T08:05:52.684Z,51.73
2019-01-14T08:08:21.507Z,50.73
2019-01-14T08:10:50.300Z,64.43
2019-01-14T08:13:18.553Z,76.17
2019-01-14T08:15:47.159Z,87.10
2019-01-14T08:18:15.890Z,57.73
2019-01-14T08:20:44.462Z,57.93
2019-01-14T08:23:13.196Z,55.60
2019-01-14T08:25:41.816Z,51.57
2019-01-14T08:28:10.495Z,49.57
2019-01-14T08:30:39.189Z,51.53
2019-01-14T08:33:07.996Z,50.70
2019-01-14T08:35:36.770Z,47.73
2019-01-14T08:38:05.380Z,45.23
2019-01-14T08:40:34.134Z,45.17
2019-01-14T08:43:02.616Z,48.87
2019-01-14T08:45:31.102Z,52.20
2019-01-14T08:47:59.681Z,49.47
2019-01-14T08:50:28.338Z,43.00
2019-01-14T08:52:56.980Z,46.60
2019-01-14T08:55:25.728Z,46.27
2019-01-14T08:57:54.755Z,45.03
2019-01-14T09:00:23.892Z,45.38
2019-01-14T09:02:52.593Z,49.13
2019-01-14T09:05:21.215Z,47.33
2019-01-14T09:07:49.991Z,45.27
2019-01-14T09:10:23.619Z,44.77
2019-01-14T09:12:52.599Z,45.40
2019-01-14T09:15:21.387Z,45.07
2019-01-14T09:17:50.281Z,46.90
2019-01-14T09:20:22.171Z,44.77
2019-01-14T09:22:51.013Z,51.67
2019-01-14T09:25:19.375Z,46.13
2019-01-14T09:27:48.201Z,49.20
2019-01-14T09:30:27.014Z,47.00
2019-01-14T09:32:55.990Z,51.77
2019-01-14T09:35:24.635Z,52.37
2019-01-14T09:37:53.180Z,49.33
2019-01-14T09:40:23.417Z,50.57
2019-01-14T09:42:52.155Z,45.83
2019-01-14T09:45:20.868Z,44.30
2019-01-14T09:47:49.408Z,46.92
2019-01-14T09:50:18.074Z,48.83
2019-01-14T09:52:46.726Z,44.57
2019-01-14T09:55:16.932Z,44.17
2019-01-14T09:57:45.267Z,49.83
2019-01-14T10:00:14.396Z,49.80
2019-01-14T10:02:43.843Z,51.80
2019-01-14T10:05:13.968Z,49.10
2019-01-14T10:07:42.638Z,46.83
2019-01-14T10:10:13.164Z,47.03
2019-01-14T10:12:42.153Z,48.38
2019-01-14T10:15:16.327Z,49.43
2019-01-14T10:17:46.602Z,47.87
2019-01-14T10:20:15.133Z,48.63
2019-01-14T10:22:43.852Z,52.40
2019-01-14T10:25:12.253Z,48.30
2019-01-14T10:27:40.991Z,53.03
2019-01-14T10:30:13.234Z,51.20
2019-01-14T10:32:42.017Z,54.10
2019-01-14T10:35:10.695Z,49.13
2019-01-14T10:37:39.452Z,54.13
2019-01-14T10:40:10.051Z,51.23
2019-01-14T10:42:38.840Z,55.00
2019-01-14T10:45:16.536Z,52.97
2019-01-14T10:47:45.292Z,51.60
2019-01-14T10:50:14.387Z,55.03
2019-01-14T10:52:43.128Z,55.87
2019-01-14T10:55:13.350Z,55.53
2019-01-14T10:57:42.741Z,53.67
2019-01-14T11:00:14.660Z,56.40
2019-01-14T11:02:47.945Z,52.33
2019-01-14T11:05:18.465Z,54.90
2019-01-14T11:07:47.137Z,51.35
2019-01-14T11:10:15.808Z,53.30
2019-01-14T11:12:44.680Z,50.43
2019-01-14T11:15:13.862Z,53.63
2019-01-14T11:17:42.641Z,52.53
2019-01-14T11:20:22.897Z,55.70
2019-01-14T11:22:51.586Z,50.00
2019-01-14T11:25:20.227Z,53.20
2019-01-14T11:27:48.638Z,49.40
2019-01-14T11:30:20.387Z,51.87
2019-01-14T11:32:49.154Z,49.93
2019-01-14T11:35:17.748Z,55.30
2019-01-14T11:37:47.579Z,49.97
2019-01-14T11:40:18.928Z,53.40
2019-01-14T11:42:47.608Z,50.50
2019-01-14T11:45:16.440Z,49.07
2019-01-14T11:47:45.213Z,49.67
2019-01-14T11:50:14.930Z,51.02
2019-01-14T11:52:44.227Z,47.47
2019-01-14T11:55:12.963Z,51.63
2019-01-14T11:57:41.604Z,49.87
2019-01-14T12:00:14.359Z,52.25
2019-01-14T12:02:43.055Z,52.83
2019-01-14T12:05:12.993Z,53.27
2019-01-14T12:07:41.618Z,55.60
2019-01-14T12:10:10.354Z,58.17
2019-01-14T12:12:39.234Z,59.88
2019-01-14T12:15:12.141Z,54.33
2019-01-14T12:17:40.760Z,49.53
2019-01-14T12:20:10.478Z,50.03
2019-01-14T12:22:39.163Z,50.83
2019-01-14T12:25:08.210Z,46.40
2019-01-14T12:27:36.830Z,49.27
2019-01-14T12:30:11.053Z,49.57
2019-01-14T12:32:39.700Z,49.93
2019-01-14T12:35:08.484Z,46.80
2019-01-14T12:37:37.255Z,47.83
2019-01-14T12:40:07.989Z,47.80
2019-01-14T12:42:36.715Z,46.03
2019-01-14T12:45:06.786Z,48.60
2019-01-14T12:47:35.385Z,44.60
2019-01-14T12:50:04.852Z,48.20
2019-01-14T12:52:33.412Z,51.68
2019-01-14T12:55:02.304Z,47.13
2019-01-14T12:57:30.956Z,47.53
2019-01-14T12:59:59.580Z,47.17
2019-01-14T13:02:28.288Z,51.50
2019-01-14T13:04:57.116Z,46.77
2019-01-14T13:07:25.789Z,50.45
2019-01-14T13:09:54.440Z,49.20
2019-01-14T13:12:23.116Z,53.13
2019-01-14T13:14:51.748Z,49.73
2019-01-14T13:17:20.363Z,47.10
2019-01-14T13:19:49.079Z,44.27
2019-01-14T13:22:17.713Z,49.07
2019-01-14T13:24:46.272Z,45.77
2019-01-14T13:27:15.362Z,45.40
2019-01-14T13:29:45.063Z,51.43
2019-01-14T13:32:13.770Z,49.23
2019-01-14T13:34:44.849Z,48.03
2019-01-14T13:37:13.852Z,46.17
2019-01-14T13:39:42.657Z,45.97
2019-01-14T13:42:11.487Z,48.97
2019-01-14T13:44:40.092Z,48.67
2019-01-14T13:47:08.880Z,51.50
2019-01-14T13:49:37.644Z,46.27
2019-01-14T13:52:06.290Z,51.03
2019-01-14T13:54:35.061Z,48.17
2019-01-14T13:57:03.774Z,50.57
2019-01-14T13:59:32.578Z,47.13
2019-01-14T14:02:01.299Z,42.40
2019-01-14T14:04:30.896Z,46.97
2019-01-14T14:06:59.563Z,44.03
2019-01-14T14:09:28.279Z,48.13
2019-01-14T14:11:56.991Z,43.40
2019-01-14T14:14:25.820Z,42.90
2019-01-14T14:16:54.457Z,44.23
2019-01-14T14:19:23.201Z,48.30
2019-01-14T14:21:52.018Z,47.03
2019-01-14T14:24:20.861Z,50.23
2019-01-14T14:26:49.520Z,45.00
2019-01-14T14:29:18.237Z,47.20
2019-01-14T14:31:46.972Z,46.03
2019-01-14T14:34:15.528Z,46.77
2019-01-14T14:36:44.343Z,43.30
2019-01-14T14:39:12.745Z,42.10
2019-01-14T14:41:41.492Z,45.47
2019-01-14T14:44:10.183Z,47.37
2019-01-14T14:46:38.963Z,45.10
2019-01-14T14:49:07.725Z,46.50
2019-01-14T14:51:36.217Z,47.83
2019-01-14T14:54:05.125Z,48.37
2019-01-14T14:56:33.668Z,49.77
2019-01-14T14:59:02.468Z,47.40
2019-01-14T15:01:31.167Z,49.67
2019-01-14T15:03:59.670Z,46.10
2019-01-14T15:06:28.359Z,54.57
2019-01-14T15:08:57.001Z,49.23
2019-01-14T15:11:25.585Z,52.60
2019-01-14T15:13:54.228Z,51.63
2019-01-14T15:16:22.838Z,48.13
2019-01-14T15:18:51.669Z,52.87
2019-01-14T15:21:20.190Z,52.80
2019-01-14T15:23:49.802Z,49.93
2019-01-14T15:26:18.371Z,52.23
2019-01-14T15:28:46.786Z,40.00
2019-01-14T15:31:15.503Z,29.17
2019-01-14T15:33:44.092Z,16.93
2019-01-14T15:36:12.995Z,8.03
2019-01-14T15:38:41.543Z,11.40
2019-01-14T15:41:10.055Z,7.37
2019-01-14T15:43:38.546Z,3.80
2019-01-14T15:46:07.319Z,2.30
2019-01-14T15:48:35.778Z,23.20
2019-01-14T15:51:04.600Z,6.40
2019-01-14T15:53:33.326Z,12.13
2019-01-14T15:56:02.037Z,5.77
2019-01-14T15:58:30.590Z,3.67
2019-01-14T16:00:59.065Z,4.20
2019-01-14T16:03:28.765Z,4.70
2019-01-14T16:05:57.533Z,7.60
2019-01-14T16:08:25.976Z,4.07
2019-01-14T16:10:54.751Z,6.80
2019-01-14T16:13:23.211Z,5.80
2019-01-14T16:15:52.012Z,3.83
2019-01-14T16:18:20.424Z,4.17
2019-01-14T16:20:49.063Z,2.60
2019-01-14T16:23:17.694Z,2.33
2019-01-14T16:25:46.145Z,2.93
2019-01-14T16:28:14.712Z,5.07
2019-01-14T16:30:43.351Z,2.77
2019-01-14T16:33:12.006Z,5.13
2019-01-14T16:35:40.527Z,5.40
2019-01-14T16:38:09.173Z,4.37
2019-01-14T16:40:37.941Z,14.33
2019-01-14T16:43:06.443Z,7.10
2019-01-14T16:45:35.075Z,7.90
2019-01-14T16:48:03.638Z,5.33
2019-01-14T16:50:32.480Z,4.53
2019-01-14T16:53:01.306Z,6.37
2019-01-14T16:55:54.873Z,5.60
2019-01-14T16:58:23.603Z,3.30
2019-01-14T17:00:52.190Z,5.50
2019-01-14T17:03:20.765Z,5.93
2019-01-14T17:05:49.936Z,5.43
2019-01-14T17:08:18.473Z,13.53
2019-01-14T17:10:47.062Z,3.83
2019-01-14T17:13:15.440Z,7.40
2019-01-14T17:15:44.217Z,10.97
2019-01-14T17:18:12.848Z,8.97
2019-01-14T17:20:41.724Z,10.17
2019-01-14T17:23:10.320Z,12.13
2019-01-14T17:25:38.963Z,12.87
2019-01-14T17:28:07.645Z,11.97
2019-01-14T17:30:37.406Z,9.83
2019-01-14T17:33:06.169Z,11.10
2019-01-14T17:35:34.890Z,9.27
2019-01-14T17:38:03.511Z,5.83
2019-01-14T17:40:32.677Z,4.53
2019-01-14T17:43:01.558Z,5.00
2019-01-14T17:45:30.272Z,7.73
2019-01-14T17:47:58.850Z,6.67
2019-01-14T17:50:27.654Z,7.63
2019-01-14T17:52:56.463Z,5.83
2019-01-14T17:55:24.916Z,5.47
2019-01-14T17:57:53.474Z,6.10
2019-01-14T18:00:26.279Z,6.37
2019-01-14T18:02:55.048Z,6.10
2019-01-14T18:05:23.562Z,13.93
2019-01-14T18:07:52.301Z,11.43
2019-01-14T18:10:21.179Z,12.90
2019-01-14T18:12:50.891Z,13.23
2019-01-14T18:15:19.576Z,16.87
2019-01-14T18:17:48.055Z,14.23
2019-01-14T18:20:18.529Z,16.17
2019-01-14T18:22:47.142Z,14.90
2019-01-14T18:25:16.300Z,16.73
2019-01-14T18:27:45.234Z,15.50
2019-01-14T18:30:21.044Z,15.57
2019-01-14T18:32:49.769Z,11.83
2019-01-14T18:35:18.449Z,11.87
2019-01-14T18:37:47.223Z,12.07
2019-01-14T18:40:16.939Z,8.57
2019-01-14T18:42:45.956Z,8.40
2019-01-14T18:45:15.707Z,8.07
2019-01-14T18:47:44.364Z,10.10
2019-01-14T18:50:15.352Z,7.00
2019-01-14T18:52:44.099Z,6.80
2019-01-14T18:55:12.908Z,9.43
2019-01-14T18:57:41.727Z,7.63
2019-01-14T19:00:21.455Z,12.60
2019-01-14T19:02:51.325Z,12.13
2019-01-14T19:05:20.281Z,9.83
2019-01-14T19:07:49.278Z,9.13
2019-01-14T19:10:18.017Z,7.13
2019-01-14T19:12:46.646Z,8.87
2019-01-14T19:15:22.077Z,8.97
2019-01-14T19:17:51.840Z,10.87
2019-01-14T19:20:25.815Z,5.57
2019-01-14T19:22:54.572Z,8.43
2019-01-14T19:25:23.217Z,5.97
2019-01-14T19:27:51.937Z,5.20
2019-01-14T19:30:20.923Z,4.37
2019-01-14T19:32:49.657Z,5.50
2019-01-14T19:35:18.362Z,3.70
2019-01-14T19:37:47.144Z,3.93
2019-01-14T19:40:17.435Z,4.10
2019-01-14T19:42:46.215Z,4.83
2019-01-14T19:45:16.298Z,6.20
2019-01-14T19:47:45.101Z,2.87
2019-01-14T19:50:16.390Z,2.57
2019-01-14T19:52:45.413Z,3.33
2019-01-14T19:55:16.593Z,4.23
2019-01-14T19:57:45.235Z,3.40
2019-01-14T20:00:20.441Z,3.80
2019-01-14T20:02:49.119Z,4.22
2019-01-14T20:05:17.951Z,3.07
2019-01-14T20:07:46.844Z,2.97
2019-01-14T20:10:15.633Z,3.00
2019-01-14T20:12:44.262Z,2.67
2019-01-14T20:15:14.397Z,5.23
2019-01-14T20:17:43.207Z,3.40
2019-01-14T20:20:12.136Z,3.47
2019-01-14T20:22:40.922Z,6.90
2019-01-14T20:25:10.369Z,6.00
2019-01-14T20:27:39.129Z,5.33
2019-01-14T20:30:12.163Z,5.00
2019-01-14T20:32:40.832Z,4.33
2019-01-14T20:35:09.453Z,6.07
2019-01-14T20:37:38.165Z,5.17
2019-01-14T20:40:07.192Z,9.23
2019-01-14T20:42:35.886Z,8.83
2019-01-14T20:45:05.822Z,7.53
2019-01-14T20:47:36.510Z,6.90
2019-01-14T20:50:06.709Z,4.73
2019-01-14T20:52:35.219Z,8.40
2019-01-14T20:55:04.901Z,6.23
2019-01-14T20:57:33.572Z,4.30
2019-01-14T21:00:02.311Z,4.97
2019-01-14T21:02:31.331Z,3.93
2019-01-14T21:05:00.332Z,6.50
2019-01-14T21:07:29.204Z,5.07
2019-01-14T21:09:57.938Z,3.07
2019-01-14T21:12:26.416Z,4.33
2019-01-14T21:14:55.289Z,14.40
2019-01-14T21:17:23.785Z,9.70
2019-01-14T21:19:52.349Z,10.20
2019-01-14T21:22:20.880Z,6.97
2019-01-14T21:24:49.662Z,8.00
2019-01-14T21:27:18.317Z,8.50
2019-01-14T21:29:46.829Z,11.33
2019-01-14T21:32:15.588Z,6.40
2019-01-14T21:34:44.122Z,7.70
2019-01-14T21:37:12.725Z,6.87
2019-01-14T21:39:41.408Z,5.00
2019-01-14T21:42:10.277Z,1.90
2019-01-14T21:44:38.830Z,3.00
2019-01-14T21:47:07.291Z,29.30
2019-01-14T21:49:35.925Z,3.90
2019-01-14T21:52:04.571Z,3.10
2019-01-14T21:54:33.127Z,3.00
2019-01-14T21:57:01.894Z,14.57
2019-01-14T21:59:30.387Z,3.17
2019-01-14T22:01:59.003Z,5.57
2019-01-14T22:04:27.540Z,1.80
2019-01-14T22:06:56.239Z,6.10
2019-01-14T22:09:24.878Z,3.00
2019-01-14T22:11:53.357Z,13.00
2019-01-14T22:14:22.057Z,3.10
2019-01-14T22:16:50.607Z,4.13
2019-01-14T22:19:19.376Z,2.83
2019-01-14T22:21:47.815Z,2.07
2019-01-14T22:24:16.213Z,3.33
2019-01-14T22:26:44.739Z,2.00
2019-01-14T22:29:13.179Z,4.57
2019-01-14T22:31:41.910Z,1.80
2019-01-14T22:34:10.650Z,1.20
2019-01-14T22:36:39.002Z,2.10
2019-01-14T22:39:07.901Z,2.40
2019-01-14T22:41:36.273Z,5.60
2019-01-14T22:44:05.138Z,3.30
2019-01-14T22:46:33.743Z,6.90
2019-01-14T22:49:02.373Z,1.67
2019-01-14T22:51:30.797Z,3.40
2019-01-14T22:53:59.340Z,1.50
2019-01-14T22:56:27.777Z,1.50
2019-01-14T22:58:56.441Z,1.30
2019-01-14T23:01:44.334Z,2.17
2019-01-14T23:04:13.149Z,1.20
2019-01-14T23:06:41.771Z,2.30
2019-01-14T23:09:11.262Z,1.40
2019-01-14T23:11:39.684Z,1.37
2019-01-14T23:14:08.194Z,3.37
2019-01-14T23:16:36.931Z,2.10
2019-01-14T23:19:05.556Z,1.73
2019-01-14T23:21:34.114Z,3.33
2019-01-14T23:24:02.669Z,1.50
2019-01-14T23:26:31.369Z,2.83
2019-01-14T23:28:59.979Z,2.00
2019-01-14T23:31:28.638Z,1.73
2019-01-14T23:33:57.176Z,1.53
2019-01-14T23:36:25.794Z,1.50
2019-01-14T23:38:54.483Z,1.20
2019-01-14T23:41:23.128Z,1.70
2019-01-14T23:43:52.020Z,1.23
2019-01-14T23:46:20.820Z,5.47
2019-01-14T23:48:49.350Z,1.43
2019-01-14T23:51:17.882Z,1.33
2019-01-14T23:53:46.536Z,1.13
2019-01-14T23:56:15.158Z,3.73
2019-01-14T23:58:43.882Z,1.10
